الصفحة الرئيسية
METAR-TAF:

METAR-TAF

مطار :

مطار بودغوريتسا الدولي

بودغوريتسا, الجبل الأسود

دائرة عرض: 42-26N, خط طول: 019-17E, ارتفاع: 53 متر

مراقبة الطقس الحالي

تاريخ ووقت الإصدار 19 دقيقة قبل الساعة 18:00UTC
ريح 11 عقدة من الشمال/الشمال الشرقي, الاتجاه يتراوح بين الشمال/الشمال الغربي و الشمال الشرقي
درجة الحرارة 6°درجة مئوية
الرطوبة 39%
ضغط 1014 hPa
الرؤية 10 كم أو أكثر
غيوم متفرقة على ارتفاع 4000 قدم
غيوم مفككة على ارتفاع 8000 قدم

METAR: LYPG 011800Z 02011KT 340V050 9999 SCT040 BKN080 06/M07 Q1014 NOSIG

زمن: 20:19 (18:19 UTC)

توقعات

تاريخ ووقت الإصدار 1ساعة و 19 دقيقة قبل الساعة 17:00UTC
التوقعات صالحة من01 الساعة 18 UTC إلى 02 الساعة 18 UTC
ريح 12 عقدة من الشمال/الشمال الشرقي
الرؤية 10 كم أو أكثر
غيوم متفرقة على ارتفاع 4000 قدم
غيوم متفرقة على ارتفاع 8000 قدم
مؤقت
من 01 الساعة 18 UTC إلى 01 الساعة 22 UTC
ريح 15 عقدة من الشمال تتزايد حتى 25 عقدة
أصبح
من 02 الساعة 01 UTC إلى 02 الساعة 03 UTC
ريح 5 عقدة من الشمال

TAF: LYPG 011700Z 0118/0218 03012KT 9999 SCT040 SCT080 TX15/0213Z TNM01/0205Z TEMPO 0118/0122 01015G25KT BECMG 0201/0203 36005KT

أرصاد الطقس والتوقعات من أكثر من 4000 مطار (تقارير الطقس للمطار METAR والتنبؤ بالطقس بالمطارTAF).

المحطات المتاحة هي النقط الصفراء والحمراء على الخريطة.

حرك المؤشر فوق النقطة لمعرفة اسم المحطة.

ثم انقر لمعرفة أرصاد وتوقعات الطقس.

لتغيير الخارطة: اضغط على الأزرار الخضراء مع رمز الصليب الأسود للتكبير. على الزر الأخضر مع شرطة للتصغير، أو على الأسهم الخضراء للخرائط المجاورة.


METAR-TAF: